createdAt,value
2019-02-08T00:00:00.081Z,84.51
2019-02-08T00:02:32.812Z,84.39
2019-02-08T00:05:04.860Z,84.29
2019-02-08T00:07:35.313Z,84.47
2019-02-08T00:10:06.856Z,84.24
2019-02-08T00:12:37.260Z,83.93
2019-02-08T00:15:08.021Z,83.79
2019-02-08T00:17:38.875Z,83.96
2019-02-08T00:20:10.392Z,83.96
2019-02-08T00:22:42.033Z,83.25
2019-02-08T00:25:15.934Z,83.07
2019-02-08T00:27:48.164Z,83.00
2019-02-08T00:30:21.051Z,83.38
2019-02-08T00:32:53.303Z,83.48
2019-02-08T00:35:24.387Z,83.51
2019-02-08T00:37:55.603Z,83.56
2019-02-08T00:40:28.883Z,83.64
2019-02-08T00:43:00.273Z,83.67
2019-02-08T00:45:31.287Z,84.22
2019-02-08T00:48:02.312Z,84.75
2019-02-08T00:50:33.237Z,85.38
2019-02-08T00:53:06.375Z,85.73
2019-02-08T00:55:39.009Z,85.87
2019-02-08T00:58:11.413Z,85.72
2019-02-08T01:00:42.410Z,85.70
2019-02-08T01:03:13.554Z,85.84
2019-02-08T01:05:44.287Z,86.20
2019-02-08T01:08:15.467Z,86.21
2019-02-08T01:10:46.480Z,86.14
2019-02-08T01:13:17.445Z,86.02
2019-02-08T01:15:50.506Z,86.26
2019-02-08T01:18:21.751Z,86.22
2019-02-08T01:20:52.399Z,86.25
2019-02-08T01:23:23.535Z,86.45
2019-02-08T01:25:56.145Z,86.42
2019-02-08T01:28:28.537Z,86.34
2019-02-08T01:30:59.413Z,86.23
2019-02-08T01:33:32.433Z,86.60
2019-02-08T01:36:03.598Z,86.86
2019-02-08T01:38:34.496Z,87.20
2019-02-08T01:41:06.839Z,87.67
2019-02-08T01:43:38.716Z,87.80
2019-02-08T01:46:10.485Z,87.87
2019-02-08T01:48:41.670Z,87.84
2019-02-08T01:51:12.739Z,87.93
2019-02-08T01:53:48.580Z,87.99
2019-02-08T01:56:17.528Z,87.75
2019-02-08T01:58:48.605Z,87.87
2019-02-08T02:01:21.361Z,87.87
2019-02-08T02:03:53.734Z,87.65
2019-02-08T02:06:25.690Z,87.67
2019-02-08T02:08:57.698Z,87.84
2019-02-08T02:11:29.613Z,87.84
2019-02-08T02:14:00.765Z,87.79
2019-02-08T02:16:31.597Z,87.87
2019-02-08T02:19:02.768Z,87.77
2019-02-08T02:21:33.729Z,87.61
2019-02-08T02:24:04.754Z,87.64
2019-02-08T02:26:35.594Z,87.53
2019-02-08T02:29:08.762Z,87.50
2019-02-08T02:31:40.801Z,87.14
2019-02-08T02:34:15.471Z,86.64
2019-02-08T02:36:47.769Z,86.67
2019-02-08T02:39:18.751Z,86.92
2019-02-08T02:41:49.916Z,86.91
2019-02-08T02:44:20.984Z,86.70
2019-02-08T02:46:51.893Z,86.43
2019-02-08T02:49:22.836Z,86.37
2019-02-08T02:51:53.873Z,86.48
2019-02-08T02:54:24.902Z,86.41
2019-02-08T02:56:55.910Z,86.21
2019-02-08T02:59:26.793Z,86.06
2019-02-08T03:01:57.855Z,86.15
2019-02-08T03:04:28.992Z,85.86
2019-02-08T03:07:00.059Z,85.51
2019-02-08T03:09:30.941Z,85.33
2019-02-08T03:12:01.927Z,85.07
2019-02-08T03:14:33.340Z,84.98
2019-02-08T03:17:03.992Z,85.24
2019-02-08T03:19:34.920Z,85.19
2019-02-08T03:22:06.004Z,85.50
2019-02-08T03:24:36.387Z,85.93
2019-02-08T03:27:08.080Z,86.25
2019-02-08T03:29:39.102Z,86.46
2019-02-08T03:32:10.188Z,86.80
2019-02-08T03:34:43.166Z,86.97
2019-02-08T03:37:15.141Z,87.26
2019-02-08T03:39:46.135Z,87.31
2019-02-08T03:42:17.042Z,87.56
2019-02-08T03:44:48.023Z,87.73
2019-02-08T03:47:19.128Z,88.13
2019-02-08T03:49:50.192Z,88.27
2019-02-08T03:52:21.110Z,88.12
2019-02-08T03:54:52.077Z,88.49
2019-02-08T03:57:23.295Z,88.75
2019-02-08T03:59:56.191Z,88.90
2019-02-08T04:02:27.230Z,89.18
2019-02-08T04:04:58.315Z,89.24
2019-02-08T04:07:29.109Z,89.23
2019-02-08T04:10:00.247Z,89.28
2019-02-08T04:12:31.306Z,89.74
2019-02-08T04:15:02.055Z,90.07
2019-02-08T04:17:33.278Z,90.17
2019-02-08T04:20:04.840Z,90.20
2019-02-08T04:22:36.869Z,90.62
2019-02-08T04:25:10.049Z,90.72
2019-02-08T04:27:43.973Z,90.91
2019-02-08T04:30:17.877Z,91.34
2019-02-08T04:32:48.238Z,91.56
2019-02-08T04:35:19.655Z,91.98
2019-02-08T04:37:50.339Z,91.69
2019-02-08T04:40:21.501Z,91.67
2019-02-08T04:42:52.309Z,91.66
2019-02-08T04:45:25.268Z,91.73
2019-02-08T04:47:57.375Z,91.98
2019-02-08T04:50:28.374Z,92.30
2019-02-08T04:52:59.744Z,92.64
2019-02-08T04:55:30.512Z,92.61
2019-02-08T04:58:02.344Z,92.81
2019-02-08T05:00:37.040Z,92.81
2019-02-08T05:03:09.338Z,92.84
2019-02-08T05:05:42.453Z,92.99
2019-02-08T05:08:13.454Z,93.41
2019-02-08T05:10:45.252Z,93.15
2019-02-08T05:13:16.063Z,92.99
2019-02-08T05:15:47.018Z,92.40
2019-02-08T05:18:17.533Z,92.17
2019-02-08T05:20:48.505Z,91.82
2019-02-08T05:23:19.620Z,92.80
2019-02-08T05:25:50.823Z,92.80
2019-02-08T05:28:22.552Z,92.81
2019-02-08T05:30:53.489Z,92.15
2019-02-08T05:33:24.739Z,92.15
2019-02-08T05:35:55.621Z,92.39
2019-02-08T05:38:26.514Z,92.30
2019-02-08T05:40:57.748Z,92.15
2019-02-08T05:43:28.681Z,92.03
2019-02-08T05:45:59.870Z,92.03
2019-02-08T05:48:30.580Z,91.37
2019-02-08T05:51:01.605Z,91.31
2019-02-08T05:53:32.683Z,91.26
2019-02-08T05:56:03.652Z,91.07
2019-02-08T05:58:34.567Z,91.64
2019-02-08T06:01:05.775Z,91.64
2019-02-08T06:03:36.453Z,91.70
2019-02-08T06:06:07.675Z,91.51
2019-02-08T06:08:38.573Z,91.62
2019-02-08T06:11:09.572Z,91.62
2019-02-08T06:13:40.481Z,91.46
2019-02-08T06:16:11.568Z,91.46
2019-02-08T06:18:42.375Z,91.67
2019-02-08T06:21:13.052Z,91.54
2019-02-08T06:23:44.483Z,91.65
2019-02-08T06:26:14.978Z,91.57
2019-02-08T06:28:45.791Z,91.14
2019-02-08T06:31:16.731Z,90.84
2019-02-08T06:33:48.341Z,90.68
2019-02-08T06:36:18.923Z,90.16
2019-02-08T06:38:50.349Z,90.16
2019-02-08T06:41:20.756Z,90.00
2019-02-08T06:43:51.844Z,88.61
2019-02-08T06:46:23.246Z,86.00
2019-02-08T06:48:53.975Z,86.00
2019-02-08T06:51:25.032Z,84.39
2019-02-08T06:53:55.942Z,84.39
2019-02-08T06:56:44.569Z,84.84
2019-02-08T06:59:26.683Z,85.09
2019-02-08T07:02:24.087Z,85.09
2019-02-08T07:05:14.220Z,85.45
2019-02-08T07:07:51.918Z,85.69
2019-02-08T07:10:41.936Z,85.90
2019-02-08T07:13:24.156Z,85.91
2019-02-08T07:16:11.670Z,86.09
2019-02-08T07:19:00.988Z,86.06
2019-02-08T07:21:37.964Z,86.00
2019-02-08T07:24:35.849Z,86.10
2019-02-08T07:27:14.603Z,85.75
2019-02-08T07:30:17.089Z,85.75
2019-02-08T07:33:09.610Z,84.88
2019-02-08T07:35:58.236Z,84.77
2019-02-08T07:38:50.427Z,84.97
2019-02-08T07:41:39.060Z,84.51
2019-02-08T07:44:20.872Z,83.89
2019-02-08T07:47:18.752Z,83.75
2019-02-08T07:50:07.117Z,83.19
2019-02-08T07:52:57.310Z,82.90
2019-02-08T07:55:47.155Z,82.16
2019-02-08T07:58:51.173Z,82.37
2019-02-08T08:01:41.292Z,81.83
2019-02-08T08:04:31.600Z,81.77
2019-02-08T08:07:25.048Z,81.20
2019-02-08T08:10:11.250Z,80.38
2019-02-08T08:12:55.084Z,79.21
2019-02-08T08:15:45.184Z,79.53
2019-02-08T08:18:34.595Z,79.03
2019-02-08T08:21:33.707Z,78.64
2019-02-08T08:24:25.564Z,77.58
2019-02-08T08:27:17.634Z,77.68
2019-02-08T08:30:12.550Z,76.80
2019-02-08T08:33:03.283Z,77.38
2019-02-08T08:36:17.090Z,76.58
2019-02-08T08:39:14.272Z,76.60
2019-02-08T08:42:36.162Z,76.02
2019-02-08T08:45:27.404Z,76.40
2019-02-08T08:48:22.755Z,76.02
2019-02-08T08:51:27.098Z,75.81
2019-02-08T08:54:23.857Z,75.14
2019-02-08T08:57:31.122Z,74.17
2019-02-08T09:00:40.612Z,74.08
2019-02-08T09:04:02.349Z,73.71
2019-02-08T09:07:26.368Z,73.71
2019-02-08T09:10:51.350Z,73.95
2019-02-08T09:14:14.082Z,73.66
2019-02-08T09:17:36.937Z,73.92
2019-02-08T09:20:43.763Z,74.20
2019-02-08T09:23:41.125Z,73.88
2019-02-08T09:26:50.087Z,73.88
2019-02-08T09:30:01.061Z,74.11
2019-02-08T09:33:21.694Z,74.37
2019-02-08T09:36:50.713Z,74.43
2019-02-08T09:39:58.209Z,74.42
2019-02-08T09:43:33.411Z,73.09
2019-02-08T09:47:01.716Z,73.12
2019-02-08T09:50:04.450Z,72.13
2019-02-08T09:52:52.867Z,70.89
2019-02-08T09:56:06.136Z,71.11
2019-02-08T09:59:09.654Z,70.27
2019-02-08T10:02:17.979Z,69.88
2019-02-08T10:05:38.456Z,69.96
2019-02-08T10:08:44.174Z,68.90
2019-02-08T10:11:52.691Z,67.83
2019-02-08T10:15:16.054Z,68.03
2019-02-08T10:18:27.174Z,68.06
2019-02-08T10:21:45.415Z,67.94
2019-02-08T10:25:30.880Z,67.77
2019-02-08T10:28:38.102Z,67.48
2019-02-08T10:31:45.135Z,66.17
2019-02-08T10:34:56.169Z,66.13
2019-02-08T10:38:01.943Z,65.73
2019-02-08T10:41:14.327Z,64.71
2019-02-08T10:44:37.646Z,64.20
2019-02-08T10:47:50.791Z,64.02
2019-02-08T10:51:07.686Z,64.19
2019-02-08T10:54:16.479Z,62.79
2019-02-08T10:57:31.510Z,63.12
2019-02-08T11:00:42.408Z,63.38
2019-02-08T11:03:52.350Z,62.84
2019-02-08T11:07:28.025Z,62.90
2019-02-08T11:10:29.556Z,61.10
2019-02-08T11:13:51.492Z,60.52
2019-02-08T11:17:32.028Z,59.76
2019-02-08T11:20:03.171Z,59.90
2019-02-08T11:22:35.484Z,58.73
2019-02-08T11:25:08.463Z,58.33
2019-02-08T11:27:40.310Z,58.46
2019-02-08T11:30:15.042Z,58.97
2019-02-08T11:32:48.260Z,59.81
2019-02-08T11:35:19.233Z,60.06
2019-02-08T11:37:50.150Z,60.49
2019-02-08T11:40:24.502Z,60.23
2019-02-08T11:42:55.237Z,60.09
2019-02-08T11:45:28.382Z,59.78
2019-02-08T11:47:59.287Z,59.26
2019-02-08T11:50:31.011Z,58.51
2019-02-08T11:53:01.859Z,58.73
2019-02-08T11:55:32.366Z,58.97
2019-02-08T11:58:03.818Z,58.50
2019-02-08T12:00:37.738Z,58.86
2019-02-08T12:03:08.344Z,57.64
2019-02-08T12:05:40.424Z,57.00
2019-02-08T12:08:11.388Z,56.46
2019-02-08T12:10:42.516Z,55.49
2019-02-08T12:13:15.320Z,55.43
2019-02-08T12:15:48.037Z,55.84
2019-02-08T12:18:20.419Z,56.20
2019-02-08T12:20:51.548Z,56.59
2019-02-08T12:23:22.438Z,55.54
2019-02-08T12:25:53.318Z,56.09
2019-02-08T12:28:25.204Z,55.81
2019-02-08T12:30:58.558Z,55.70
2019-02-08T12:33:29.498Z,55.32
2019-02-08T12:36:00.405Z,54.31
2019-02-08T12:38:32.831Z,54.42
2019-02-08T12:41:09.773Z,53.64
2019-02-08T12:43:37.598Z,54.02
2019-02-08T12:46:10.639Z,54.21
2019-02-08T12:48:41.475Z,54.21
2019-02-08T12:51:12.779Z,53.47
2019-02-08T12:53:47.166Z,53.75
2019-02-08T12:56:19.670Z,53.40
2019-02-08T12:58:50.835Z,52.64
2019-02-08T13:01:21.594Z,51.67
2019-02-08T13:03:52.522Z,51.52
2019-02-08T13:06:23.738Z,51.12
2019-02-08T13:08:54.635Z,51.05
2019-02-08T13:11:27.608Z,50.36
2019-02-08T13:13:59.521Z,49.08
2019-02-08T13:16:31.690Z,48.94
2019-02-08T13:19:04.571Z,48.47
2019-02-08T13:21:35.680Z,48.40
2019-02-08T13:24:06.514Z,48.91
2019-02-08T13:26:37.105Z,48.56
2019-02-08T13:29:08.472Z,47.64
2019-02-08T13:31:39.454Z,47.16
2019-02-08T13:34:10.438Z,47.17
2019-02-08T13:36:41.710Z,46.30
2019-02-08T13:39:12.473Z,46.23
2019-02-08T13:41:43.006Z,45.45
2019-02-08T13:44:13.776Z,45.36
2019-02-08T13:46:45.311Z,47.05
2019-02-08T13:49:15.875Z,45.92
2019-02-08T13:51:47.262Z,44.88
2019-02-08T13:54:17.860Z,44.82
2019-02-08T13:56:49.091Z,44.63
2019-02-08T13:59:19.946Z,44.84
2019-02-08T14:01:51.597Z,44.59
2019-02-08T14:04:22.116Z,45.34
2019-02-08T14:06:53.028Z,44.79
2019-02-08T14:09:23.901Z,44.42
2019-02-08T14:11:56.412Z,46.51
2019-02-08T14:14:28.886Z,48.16
2019-02-08T14:16:59.984Z,47.55
2019-02-08T14:19:30.935Z,50.85
2019-02-08T14:22:01.954Z,45.47
2019-02-08T14:24:33.066Z,52.48
2019-02-08T14:27:08.547Z,52.51
2019-02-08T14:29:36.053Z,49.37
2019-02-08T14:32:08.920Z,49.82
2019-02-08T14:34:43.581Z,48.97
2019-02-08T14:37:13.975Z,47.30
2019-02-08T14:39:45.928Z,46.15
2019-02-08T14:42:19.250Z,45.15
2019-02-08T14:44:50.072Z,44.80
2019-02-08T14:47:23.031Z,44.06
2019-02-08T14:49:54.075Z,42.73
2019-02-08T14:52:25.176Z,41.73
2019-02-08T14:54:56.025Z,41.39
2019-02-08T14:57:29.475Z,40.85
2019-02-08T15:00:02.206Z,40.32
2019-02-08T15:02:34.204Z,39.63
2019-02-08T15:05:07.939Z,39.58
2019-02-08T15:07:40.186Z,39.18
2019-02-08T15:10:17.367Z,38.37
2019-02-08T15:12:48.418Z,38.76
2019-02-08T15:15:19.245Z,40.28
2019-02-08T15:17:50.348Z,41.37
2019-02-08T15:20:26.131Z,42.94
2019-02-08T15:22:58.232Z,43.16
2019-02-08T15:25:29.467Z,43.59
2019-02-08T15:28:00.199Z,43.92
2019-02-08T15:30:32.485Z,44.33
2019-02-08T15:33:05.593Z,45.71
2019-02-08T15:35:36.438Z,46.63
2019-02-08T15:38:07.483Z,48.20
2019-02-08T15:40:45.513Z,49.44
2019-02-08T15:43:19.082Z,50.17
2019-02-08T15:46:10.647Z,51.55
2019-02-08T15:48:43.313Z,53.11
2019-02-08T15:51:15.299Z,55.35
2019-02-08T15:53:46.554Z,57.70
2019-02-08T15:56:17.581Z,59.85
2019-02-08T15:58:49.415Z,62.36
2019-02-08T16:01:21.318Z,64.32
2019-02-08T16:03:52.485Z,66.32
2019-02-08T16:06:23.390Z,68.10
2019-02-08T16:08:54.504Z,68.97
2019-02-08T16:11:25.362Z,70.44
2019-02-08T16:13:56.473Z,71.80
2019-02-08T16:16:27.366Z,73.22
2019-02-08T16:18:58.196Z,74.19
2019-02-08T16:21:29.175Z,74.88
2019-02-08T16:23:59.933Z,75.64
2019-02-08T16:26:30.433Z,77.18
2019-02-08T16:29:01.552Z,77.78
2019-02-08T16:31:32.468Z,78.51
2019-02-08T16:34:04.793Z,78.93
2019-02-08T16:36:36.804Z,79.50
2019-02-08T16:39:10.352Z,79.98
2019-02-08T16:41:42.789Z,80.68
2019-02-08T16:44:13.541Z,81.09
2019-02-08T16:46:44.649Z,81.52
2019-02-08T16:49:15.625Z,82.21
2019-02-08T16:51:46.524Z,82.60
2019-02-08T16:54:17.725Z,83.16
2019-02-08T16:56:48.952Z,83.52
2019-02-08T16:59:19.577Z,83.69
2019-02-08T17:01:50.716Z,84.08
2019-02-08T17:04:21.623Z,84.50
2019-02-08T17:06:52.699Z,84.46
2019-02-08T17:09:25.599Z,84.18
2019-02-08T17:11:58.675Z,83.94
2019-02-08T17:14:30.647Z,84.23
2019-02-08T17:17:01.720Z,84.61
2019-02-08T17:19:32.737Z,84.81
2019-02-08T17:22:04.779Z,85.50
2019-02-08T17:24:36.943Z,86.25
2019-02-08T17:27:08.774Z,86.63
2019-02-08T17:29:39.916Z,87.17
2019-02-08T17:32:10.756Z,87.47
2019-02-08T17:34:41.774Z,87.37
2019-02-08T17:37:12.790Z,87.50
2019-02-08T17:39:43.643Z,87.75
2019-02-08T17:42:14.552Z,88.64
2019-02-08T17:44:45.390Z,88.64
2019-02-08T17:47:16.252Z,89.12
2019-02-08T17:49:47.391Z,89.58
2019-02-08T17:52:17.861Z,89.34
2019-02-08T17:54:49.142Z,89.34
2019-02-08T17:57:19.999Z,89.67
2019-02-08T17:59:51.007Z,89.64
2019-02-08T18:02:21.938Z,90.48
2019-02-08T18:04:52.909Z,90.48
2019-02-08T18:07:23.733Z,90.30
2019-02-08T18:09:55.232Z,90.86
2019-02-08T18:12:32.313Z,90.86
2019-02-08T18:14:59.046Z,90.99
2019-02-08T18:17:30.131Z,90.99
2019-02-08T18:20:00.959Z,91.23
2019-02-08T18:22:31.981Z,91.33
2019-02-08T18:25:03.423Z,91.94
2019-02-08T18:27:34.006Z,91.94
2019-02-08T18:30:06.610Z,92.25
2019-02-08T18:32:37.074Z,92.25
2019-02-08T18:35:10.113Z,92.76
2019-02-08T18:37:43.129Z,92.76
2019-02-08T18:40:16.648Z,93.21
2019-02-08T18:42:47.386Z,93.21
2019-02-08T18:45:21.341Z,93.71
2019-02-08T18:47:53.189Z,93.71
2019-02-08T18:50:29.574Z,94.23
2019-02-08T18:53:01.246Z,94.54
2019-02-08T18:55:32.233Z,94.54
2019-02-08T18:58:03.275Z,95.02
2019-02-08T19:00:40.337Z,95.02
2019-02-08T19:03:12.286Z,94.85
2019-02-08T19:05:43.133Z,94.56
2019-02-08T19:08:16.393Z,94.56
2019-02-08T19:10:47.605Z,94.70
2019-02-08T19:13:18.350Z,95.11
2019-02-08T19:15:49.346Z,95.47
2019-02-08T19:18:20.182Z,95.73
2019-02-08T19:20:51.291Z,95.73
2019-02-08T19:23:22.168Z,96.26
2019-02-08T19:25:53.267Z,96.25
2019-02-08T19:28:26.554Z,96.25
2019-02-08T19:30:58.372Z,96.51
2019-02-08T19:33:29.394Z,96.51
2019-02-08T19:36:00.344Z,96.85
2019-02-08T19:38:31.478Z,97.06
2019-02-08T19:41:02.422Z,97.39
2019-02-08T19:43:33.475Z,97.82
2019-02-08T19:46:04.499Z,98.12
2019-02-08T19:48:37.117Z,98.47
2019-02-08T19:51:07.589Z,98.87
2019-02-08T19:53:37.988Z,99.22
2019-02-08T19:56:10.399Z,99.47
2019-02-08T19:58:43.491Z,99.73
2019-02-08T20:01:15.622Z,99.97
2019-02-08T20:03:47.547Z,100.00
2019-02-08T20:06:19.590Z,100.00
2019-02-08T20:08:51.436Z,100.00
2019-02-08T20:11:22.600Z,100.00
2019-02-08T20:13:54.461Z,100.00
2019-02-08T20:16:25.626Z,100.00
2019-02-08T20:18:58.362Z,100.00
2019-02-08T20:21:29.134Z,100.00
2019-02-08T20:23:59.550Z,100.00
2019-02-08T20:26:30.483Z,100.00
2019-02-08T20:29:01.617Z,100.00
2019-02-08T20:31:32.842Z,100.00
2019-02-08T20:34:03.924Z,100.00
2019-02-08T20:36:34.323Z,100.00
2019-02-08T20:39:08.415Z,100.00
2019-02-08T20:41:40.734Z,100.00
2019-02-08T20:44:13.697Z,100.00
2019-02-08T20:46:44.657Z,100.00
2019-02-08T20:49:15.689Z,100.00
2019-02-08T20:51:46.736Z,100.00
2019-02-08T20:54:17.779Z,100.00
2019-02-08T20:56:49.214Z,100.00
2019-02-08T20:59:19.878Z,100.00
2019-02-08T21:01:50.707Z,100.00
2019-02-08T21:04:21.654Z,100.00
2019-02-08T21:06:52.770Z,100.00
2019-02-08T21:09:23.902Z,100.00
2019-02-08T21:11:54.754Z,100.00
2019-02-08T21:14:25.772Z,100.00
2019-02-08T21:16:56.818Z,100.00
2019-02-08T21:19:27.771Z,100.00
2019-02-08T21:21:58.994Z,100.00
2019-02-08T21:24:29.755Z,100.00
2019-02-08T21:27:02.788Z,100.00
2019-02-08T21:29:34.801Z,100.00
2019-02-08T21:32:05.967Z,100.00
2019-02-08T21:34:36.967Z,100.00
2019-02-08T21:37:07.811Z,100.00
2019-02-08T21:39:38.183Z,100.00
2019-02-08T21:42:09.923Z,100.00
2019-02-08T21:44:40.987Z,100.00
2019-02-08T21:47:11.977Z,100.00
2019-02-08T21:49:43.976Z,100.00
2019-02-08T21:52:16.863Z,100.00
2019-02-08T21:54:49.968Z,100.00
2019-02-08T21:57:22.722Z,100.00
2019-02-08T21:59:56.232Z,100.00
2019-02-08T22:02:27.143Z,100.00
2019-02-08T22:05:01.177Z,100.00
2019-02-08T22:07:34.979Z,100.00
2019-02-08T22:10:06.539Z,100.00
2019-02-08T22:12:36.999Z,100.00
2019-02-08T22:15:11.290Z,100.00
2019-02-08T22:17:43.410Z,100.00
2019-02-08T22:20:16.969Z,100.00
2019-02-08T22:22:50.044Z,100.00
2019-02-08T22:25:24.181Z,100.00
2019-02-08T22:27:57.285Z,100.00
2019-02-08T22:30:28.135Z,100.00
2019-02-08T22:32:59.287Z,100.00
2019-02-08T22:35:31.234Z,100.00
2019-02-08T22:38:02.155Z,100.00
2019-02-08T22:40:34.215Z,100.00
2019-02-08T22:43:06.284Z,100.00
2019-02-08T22:45:38.891Z,100.00
2019-02-08T22:48:11.229Z,100.00
2019-02-08T22:50:42.662Z,100.00
2019-02-08T22:53:13.289Z,100.00
2019-02-08T22:55:44.527Z,100.00
2019-02-08T22:58:15.289Z,100.00
2019-02-08T23:01:30.675Z,100.00
2019-02-08T23:04:03.373Z,100.00
2019-02-08T23:06:33.811Z,100.00
2019-02-08T23:09:06.155Z,100.00
2019-02-08T23:11:37.303Z,100.00
2019-02-08T23:14:09.450Z,100.00
2019-02-08T23:16:41.201Z,100.00
2019-02-08T23:19:14.374Z,100.00
2019-02-08T23:21:45.310Z,100.00
2019-02-08T23:24:16.513Z,100.00
2019-02-08T23:26:47.428Z,100.00
2019-02-08T23:29:19.413Z,100.00
2019-02-08T23:31:52.433Z,100.00
2019-02-08T23:34:23.464Z,100.00
2019-02-08T23:36:54.346Z,100.00
2019-02-08T23:39:27.441Z,100.00
2019-02-08T23:41:59.460Z,100.00
2019-02-08T23:44:31.732Z,100.00
2019-02-08T23:47:04.150Z,100.00
2019-02-08T23:49:35.019Z,100.00
2019-02-08T23:52:06.081Z,100.00
2019-02-08T23:54:37.051Z,100.00
2019-02-08T23:57:08.059Z,100.00
2019-02-08T23:59:39.134Z,100.00
